Time;durP1;ratioP1;P1;durP2;ratioP2;P2;SDS_P1;SDS_P2;PMS_P1;PMS_P2;Temp;Humidity;BMP_temperature;BMP_pressure;BME280_temperature;BME280_humidity;BME280_pressure;Samples;Min_cycle;Max_cycle;Signal;HPM_P1;HPM_P2
2021/06/29 00:02:25;;;;;;;1.98;1.02;;;19.40;99.90;;;;;;5020581;28;20183;-76
2021/06/29 00:04:51;;;;;;;1.63;1.25;;;19.30;99.90;;;;;;5018048;28;20656;-76
2021/06/29 00:07:17;;;;;;;1.42;1.33;;;19.30;99.90;;;;;;5017617;28;20542;-76
2021/06/29 00:09:43;;;;;;;2.78;1.23;;;19.10;99.90;;;;;;5019204;28;20659;-77
2021/06/29 00:12:09;;;;;;;1.30;1.20;;;19.00;99.90;;;;;;5019057;28;20980;-79
2021/06/29 00:14:35;;;;;;;2.03;1.27;;;19.00;99.90;;;;;;5017281;28;20282;-76
2021/06/29 00:17:01;;;;;;;0.85;0.85;;;19.00;99.90;;;;;;5017227;28;20490;-77
2021/06/29 00:19:26;;;;;;;1.25;1.15;;;19.00;99.90;;;;;;5018879;28;20266;-80
2021/06/29 00:21:52;;;;;;;1.40;1.30;;;19.00;99.90;;;;;;5014893;28;20265;-78
2021/06/29 00:24:18;;;;;;;1.90;1.35;;;18.90;99.90;;;;;;5018587;28;20215;-77
2021/06/29 00:26:43;;;;;;;1.25;1.13;;;18.70;99.90;;;;;;5015989;28;20237;-77
2021/06/29 00:29:09;;;;;;;1.30;1.17;;;18.60;99.90;;;;;;5016387;28;21089;-78
2021/06/29 00:31:35;;;;;;;2.28;1.10;;;18.60;99.90;;;;;;5016576;28;20308;-76
2021/06/29 00:34:01;;;;;;;1.02;0.93;;;18.60;99.90;;;;;;5019724;28;20194;-78
2021/06/29 00:36:26;;;;;;;2.95;1.10;;;18.60;99.90;;;;;;5017139;28;20206;-76
2021/06/29 00:38:52;;;;;;;1.30;1.20;;;18.60;99.90;;;;;;5017188;28;20193;-79
2021/06/29 00:41:18;;;;;;;1.52;1.27;;;18.60;99.90;;;;;;5019118;28;20246;-79
2021/06/29 00:43:51;;;;;;;3.58;1.42;;;18.80;99.90;;;;;;5018599;28;20179;-78
2021/06/29 00:46:18;;;;;;;1.88;1.20;;;19.00;99.90;;;;;;5016217;28;20241;-77
2021/06/29 00:48:45;;;;;;;4.85;1.60;;;19.00;99.90;;;;;;5015049;28;20194;-77
2021/06/29 00:51:12;;;;;;;5.00;1.33;;;19.00;99.90;;;;;;5031256;28;20691;-79
2021/06/29 00:53:39;;;;;;;2.60;1.23;;;19.00;99.90;;;;;;5013401;28;20641;-79
2021/06/29 00:56:06;;;;;;;4.95;1.65;;;18.90;99.90;;;;;;5016744;28;20214;-79
2021/06/29 00:58:32;;;;;;;1.40;0.85;;;18.90;99.90;;;;;;5016425;28;20178;-78
2021/06/29 01:00:57;;;;;;;1.55;1.10;;;18.80;99.90;;;;;;5015827;28;20219;-78
2021/06/29 01:03:23;;;;;;;3.95;0.93;;;18.80;99.90;;;;;;5016975;28;20215;-78
2021/06/29 01:05:49;;;;;;;1.92;0.70;;;18.70;99.90;;;;;;5016874;28;20208;-78
2021/06/29 01:08:14;;;;;;;0.98;0.95;;;18.60;99.90;;;;;;5017783;28;20585;-78
2021/06/29 01:10:40;;;;;;;0.90;0.90;;;18.70;99.90;;;;;;5017561;28;20747;-78
2021/06/29 01:13:05;;;;;;;9.25;1.42;;;18.80;99.90;;;;;;5018634;28;20269;-78
2021/06/29 01:15:31;;;;;;;2.28;0.95;;;18.70;99.90;;;;;;5016894;28;20536;-78
2021/06/29 01:17:59;;;;;;;2.33;0.80;;;18.70;99.90;;;;;;5017662;28;20677;-78
2021/06/29 01:20:31;;;;;;;2.15;1.23;;;18.70;99.90;;;;;;5031395;28;20240;-78
2021/06/29 01:23:08;;;;;;;1.33;1.08;;;18.70;99.90;;;;;;5015877;28;20191;-79
2021/06/29 01:25:34;;;;;;;1.15;1.00;;;18.70;99.90;;;;;;5015732;28;20222;-78
2021/06/29 01:32:57;;;;;;;2.13;1.20;;;18.80;99.90;;;;;;5018307;28;20277;-78
2021/06/29 01:35:23;;;;;;;1.77;1.17;;;18.90;99.90;;;;;;5015617;28;20271;-79
2021/06/29 01:37:51;;;;;;;1.20;1.10;;;18.90;99.90;;;;;;5017443;28;20660;-78
2021/06/29 01:40:26;;;;;;;2.15;1.08;;;18.90;99.90;;;;;;5015918;28;20207;-78
2021/06/29 01:42:56;;;;;;;5.05;1.30;;;18.80;99.90;;;;;;5017316;28;20265;-79
2021/06/29 01:45:22;;;;;;;2.88;1.65;;;18.90;99.90;;;;;;5018351;28;20692;-78
2021/06/29 01:50:16;;;;;;;4.32;1.42;;;18.90;99.90;;;;;;5016284;28;20666;-78
2021/06/29 01:52:42;;;;;;;1.40;1.30;;;18.80;99.90;;;;;;5018775;28;20195;-81
2021/06/29 01:55:09;;;;;;;2.40;1.30;;;18.80;99.90;;;;;;5015683;28;20193;-78
2021/06/29 01:57:36;;;;;;;3.40;1.40;;;18.80;99.90;;;;;;5015992;28;20211;-78
2021/06/29 02:00:07;;;;;;;1.95;1.48;;;19.00;99.90;;;;;;5019827;28;20211;-78
2021/06/29 02:02:33;;;;;;;1.63;1.35;;;19.00;99.90;;;;;;5027002;28;20206;-78
2021/06/29 02:04:58;;;;;;;1.40;1.30;;;19.10;99.90;;;;;;5067482;22;20237;-78
2021/06/29 02:07:24;;;;;;;1.42;1.33;;;19.30;99.90;;;;;;5029555;28;20611;-78
2021/06/29 02:09:49;;;;;;;5.78;2.08;;;19.50;99.90;;;;;;5030349;28;20728;-79
2021/06/29 02:12:15;;;;;;;1.92;1.27;;;19.50;99.90;;;;;;5029466;28;20190;-78
2021/06/29 02:14:41;;;;;;;2.45;1.50;;;19.40;99.90;;;;;;5029773;28;20183;-78
2021/06/29 02:17:06;;;;;;;1.40;1.30;;;19.40;99.90;;;;;;5028977;28;20672;-79
2021/06/29 02:19:32;;;;;;;3.30;2.05;;;19.40;99.90;;;;;;5028075;28;20255;-78
2021/06/29 02:21:58;;;;;;;1.50;1.40;;;19.50;99.90;;;;;;5029662;28;20195;-78
2021/06/29 02:24:23;;;;;;;1.70;1.60;;;19.60;99.90;;;;;;5028850;28;20206;-78
2021/06/29 02:26:49;;;;;;;2.40;1.60;;;19.60;99.90;;;;;;5028725;28;20232;-79
2021/06/29 02:29:14;;;;;;;1.60;1.50;;;19.70;99.90;;;;;;5029722;28;20194;-79
2021/06/29 02:31:40;;;;;;;1.60;1.50;;;19.70;99.90;;;;;;5029339;28;20183;-79
2021/06/29 02:34:05;;;;;;;1.88;1.60;;;19.70;99.90;;;;;;5028677;28;20187;-79
2021/06/29 02:36:31;;;;;;;1.63;1.52;;;19.70;99.90;;;;;;5028763;28;20217;-80
2021/06/29 02:38:56;;;;;;;1.40;1.30;;;19.70;99.90;;;;;;5028074;28;20183;-78
2021/06/29 02:41:22;;;;;;;1.88;1.70;;;19.60;99.90;;;;;;5028310;28;20202;-78
2021/06/29 02:43:49;;;;;;;2.10;1.88;;;19.60;99.90;;;;;;5029391;28;20186;-78
2021/06/29 02:46:15;;;;;;;1.35;1.25;;;19.70;99.90;;;;;;5028796;28;20191;-78
2021/06/29 02:48:40;;;;;;;0.77;0.77;;;19.60;99.90;;;;;;5029106;28;20698;-80
2021/06/29 02:51:06;;;;;;;1.45;1.35;;;19.60;99.90;;;;;;5026974;28;20749;-78
2021/06/29 02:53:32;;;;;;;1.27;1.20;;;19.60;99.90;;;;;;5035970;28;20189;-79
2021/06/29 02:55:57;;;;;;;3.17;1.40;;;19.60;99.90;;;;;;5028753;28;20190;-79
2021/06/29 02:58:23;;;;;;;1.42;1.33;;;19.50;99.90;;;;;;5029306;28;20187;-79
2021/06/29 03:00:49;;;;;;;3.60;1.48;;;19.60;99.90;;;;;;5027185;28;20206;-80
2021/06/29 03:03:15;;;;;;;2.28;1.00;;;19.50;99.90;;;;;;5028594;28;20187;-79
2021/06/29 03:05:40;;;;;;;1.30;1.20;;;19.50;99.90;;;;;;5027025;28;20218;-78
2021/06/29 03:08:06;;;;;;;3.22;1.30;;;19.50;99.90;;;;;;5025372;28;20228;-79
2021/06/29 03:10:32;;;;;;;1.27;1.17;;;19.40;99.90;;;;;;5032867;28;20206;-79
2021/06/29 03:12:57;;;;;;;1.42;1.33;;;19.40;99.90;;;;;;5027420;28;20237;-79
2021/06/29 03:15:23;;;;;;;1.27;1.00;;;19.40;99.90;;;;;;5024864;28;20183;-79
2021/06/29 03:17:50;;;;;;;1.38;1.27;;;19.50;99.90;;;;;;5027597;28;20213;-79
2021/06/29 03:20:17;;;;;;;1.48;1.30;;;19.50;99.90;;;;;;5026557;28;20202;-78
2021/06/29 03:22:42;;;;;;;1.15;1.05;;;19.40;99.90;;;;;;5025174;28;20194;-79
2021/06/29 03:25:09;;;;;;;1.38;1.23;;;19.40;99.90;;;;;;5026918;28;20179;-80
2021/06/29 03:27:35;;;;;;;1.35;1.25;;;19.40;99.90;;;;;;5025313;28;20206;-81
2021/06/29 03:30:03;;;;;;;2.67;1.58;;;19.20;99.90;;;;;;5021940;28;20197;-77
2021/06/29 03:32:28;;;;;;;4.72;1.60;;;19.30;99.90;;;;;;5024070;28;20236;-80
2021/06/29 03:34:54;;;;;;;1.25;1.15;;;19.20;99.90;;;;;;5024163;28;20194;-80
2021/06/29 03:37:20;;;;;;;1.10;1.00;;;19.20;99.90;;;;;;5023431;28;20241;-79
2021/06/29 03:39:45;;;;;;;1.00;1.00;;;19.20;99.90;;;;;;5024313;28;20202;-79
2021/06/29 03:42:11;;;;;;;3.13;1.35;;;19.20;99.90;;;;;;5025178;28;20191;-79
2021/06/29 03:44:36;;;;;;;1.20;1.00;;;19.20;99.90;;;;;;5025003;28;20664;-78
2021/06/29 03:47:02;;;;;;;2.25;1.40;;;19.20;99.90;;;;;;5025176;28;20203;-79
2021/06/29 03:49:28;;;;;;;2.17;1.20;;;19.10;99.90;;;;;;5025029;28;20313;-78
2021/06/29 03:51:54;;;;;;;6.63;2.08;;;19.10;99.90;;;;;;5025229;28;20212;-79
2021/06/29 03:54:20;;;;;;;1.45;1.35;;;19.10;99.90;;;;;;5023385;28;20202;-79
2021/06/29 03:56:46;;;;;;;1.63;1.33;;;19.00;99.90;;;;;;5023065;28;20203;-79
2021/06/29 03:59:11;;;;;;;1.33;1.23;;;18.90;99.90;;;;;;5024688;28;20198;-79
2021/06/29 04:01:38;;;;;;;3.13;1.30;;;18.90;99.90;;;;;;5024236;28;20684;-79
2021/06/29 04:04:04;;;;;;;1.80;1.50;;;19.00;99.90;;;;;;5025358;28;20245;-78
2021/06/29 04:06:35;;;;;;;1.58;1.25;;;18.90;99.90;;;;;;5023003;28;20199;-78
2021/06/29 04:09:03;;;;;;;1.45;1.35;;;18.80;99.90;;;;;;5025802;28;20187;-78
2021/06/29 04:11:28;;;;;;;1.17;1.08;;;18.80;99.90;;;;;;5023317;28;20278;-78
2021/06/29 04:13:55;;;;;;;1.33;1.20;;;18.80;99.90;;;;;;5023929;28;20281;-79
2021/06/29 04:16:21;;;;;;;1.48;1.38;;;18.90;99.90;;;;;;5024421;28;20252;-78
2021/06/29 04:18:47;;;;;;;1.45;1.35;;;18.90;99.90;;;;;;5024709;28;20191;-80
2021/06/29 04:21:13;;;;;;;2.55;1.17;;;18.90;99.90;;;;;;5023792;28;20583;-79
2021/06/29 04:23:42;;;;;;;1.70;1.60;;;18.90;99.90;;;;;;5024838;28;20470;-79
2021/06/29 04:26:08;;;;;;;1.83;1.15;;;18.90;99.90;;;;;;5022399;28;20366;-81
2021/06/29 04:28:33;;;;;;;1.40;1.30;;;18.90;99.90;;;;;;5023598;28;20175;-79
2021/06/29 04:30:59;;;;;;;2.17;1.45;;;18.90;99.90;;;;;;5025035;28;20191;-79
2021/06/29 04:33:24;;;;;;;1.45;1.35;;;18.90;99.90;;;;;;5026448;28;20269;-78
2021/06/29 04:35:50;;;;;;;1.95;1.30;;;19.00;99.90;;;;;;5025756;28;20187;-80
2021/06/29 04:38:16;;;;;;;1.52;1.42;;;19.00;99.90;;;;;;5025523;28;20685;-80
2021/06/29 04:40:42;;;;;;;1.98;1.30;;;18.90;99.90;;;;;;5026532;28;20875;-79
2021/06/29 04:43:07;;;;;;;2.97;1.30;;;18.80;99.90;;;;;;5027893;28;20186;-80
2021/06/29 04:45:34;;;;;;;1.10;1.00;;;18.90;99.90;;;;;;5026743;28;20167;-78
2021/06/29 04:47:59;;;;;;;1.60;1.50;;;18.90;99.90;;;;;;5025985;28;20203;-79
2021/06/29 04:50:25;;;;;;;1.60;1.50;;;18.90;99.90;;;;;;5027319;28;20213;-79
2021/06/29 04:52:52;;;;;;;2.83;1.52;;;18.90;99.90;;;;;;5026793;28;20485;-79
2021/06/29 04:55:18;;;;;;;1.20;1.10;;;19.00;99.90;;;;;;5026497;28;20191;-79
2021/06/29 04:57:44;;;;;;;1.63;1.35;;;18.80;99.90;;;;;;5026653;28;20224;-77
2021/06/29 05:00:15;;;;;;;1.23;1.13;;;18.80;99.90;;;;;;5025439;28;20206;-79
2021/06/29 05:02:40;;;;;;;1.85;1.40;;;18.80;99.90;;;;;;5027009;28;20174;-80
2021/06/29 05:05:07;;;;;;;2.15;1.65;;;18.90;99.90;;;;;;5025222;28;20206;-80
2021/06/29 05:07:36;;;;;;;1.55;1.20;;;18.90;99.90;;;;;;5026708;28;20306;-79
2021/06/29 05:10:03;;;;;;;1.50;1.30;;;19.00;99.90;;;;;;5025301;28;20183;-79
2021/06/29 05:12:29;;;;;;;1.33;1.00;;;19.10;99.90;;;;;;5026423;28;20171;-79
2021/06/29 05:14:55;;;;;;;1.20;1.02;;;19.20;99.90;;;;;;5025034;28;20186;-79
2021/06/29 05:17:20;;;;;;;3.30;1.20;;;19.30;99.90;;;;;;5027067;28;20795;-79
2021/06/29 05:19:46;;;;;;;1.10;0.90;;;19.40;99.90;;;;;;5026439;28;20256;-79
2021/06/29 05:22:11;;;;;;;1.38;1.15;;;19.30;99.90;;;;;;5026749;28;20531;-80
2021/06/29 05:24:37;;;;;;;1.98;1.05;;;19.30;99.90;;;;;;5026096;28;20182;-78
2021/06/29 05:27:03;;;;;;;1.35;1.23;;;19.30;99.90;;;;;;5025188;28;20298;-79
2021/06/29 05:29:28;;;;;;;1.27;1.17;;;19.30;99.90;;;;;;5026031;28;20180;-78
2021/06/29 05:31:54;;;;;;;1.50;1.40;;;19.10;99.90;;;;;;5026878;28;20194;-78
2021/06/29 05:34:19;;;;;;;1.20;1.05;;;19.00;99.90;;;;;;5028574;28;20189;-79
2021/06/29 05:36:45;;;;;;;2.17;0.95;;;19.10;99.90;;;;;;5030442;28;20207;-78
2021/06/29 05:39:15;;;;;;;1.40;1.13;;;19.20;99.90;;;;;;5029527;28;20297;-79
2021/06/29 05:41:41;;;;;;;1.20;1.10;;;19.20;99.90;;;;;;5030975;28;20190;-79
2021/06/29 05:44:07;;;;;;;1.30;1.20;;;19.30;99.90;;;;;;5030411;28;20276;-78
2021/06/29 05:46:32;;;;;;;1.30;1.20;;;19.40;99.90;;;;;;5030270;28;20223;-79
2021/06/29 05:48:58;;;;;;;2.42;1.30;;;19.40;99.90;;;;;;5030462;28;20183;-79
2021/06/29 05:51:24;;;;;;;0.93;0.93;;;19.50;99.90;;;;;;5030238;28;20807;-79
2021/06/29 05:53:49;;;;;;;1.02;1.00;;;19.60;99.90;;;;;;5030080;28;20182;-79
2021/06/29 05:56:15;;;;;;;1.30;1.20;;;19.60;99.90;;;;;;5030176;28;20212;-79
2021/06/29 05:58:41;;;;;;;1.25;1.15;;;19.70;99.90;;;;;;5029423;28;20191;-79
2021/06/29 06:01:07;;;;;;;1.20;1.00;;;19.70;99.90;;;;;;5028334;28;20239;-79
2021/06/29 06:03:33;;;;;;;1.50;1.40;;;19.60;99.90;;;;;;5030412;28;20622;-79
2021/06/29 06:05:59;;;;;;;1.02;1.00;;;19.60;99.90;;;;;;5029976;28;20190;-79
2021/06/29 06:08:25;;;;;;;2.03;1.23;;;19.50;99.90;;;;;;5030165;28;20537;-79
2021/06/29 06:10:51;;;;;;;3.60;1.17;;;19.60;99.90;;;;;;5030077;28;20201;-79
2021/06/29 06:13:17;;;;;;;6.45;1.83;;;19.60;99.90;;;;;;5029140;28;20191;-79
2021/06/29 06:15:43;;;;;;;1.48;1.02;;;19.70;99.90;;;;;;5025752;28;20190;-79
2021/06/29 06:18:08;;;;;;;2.15;1.23;;;19.70;99.90;;;;;;5027968;28;20700;-79
2021/06/29 06:20:35;;;;;;;2.05;1.27;;;19.80;99.90;;;;;;5029612;28;20249;-79
2021/06/29 06:23:02;;;;;;;1.20;1.10;;;19.90;99.90;;;;;;5029343;28;20717;-79
2021/06/29 06:25:28;;;;;;;1.40;1.30;;;20.00;99.90;;;;;;5028979;28;20640;-79
2021/06/29 06:27:54;;;;;;;0.98;0.98;;;20.20;99.90;;;;;;5029204;28;20207;-80
2021/06/29 06:30:19;;;;;;;1.70;1.25;;;20.20;99.90;;;;;;5030239;28;20186;-79
2021/06/29 06:32:45;;;;;;;1.30;1.20;;;20.20;99.90;;;;;;5029928;28;20187;-79
2021/06/29 06:35:11;;;;;;;0.90;0.90;;;20.20;99.90;;;;;;5028521;28;20906;-78
2021/06/29 06:37:37;;;;;;;1.45;1.10;;;20.20;99.90;;;;;;5028966;28;20252;-79
2021/06/29 06:40:05;;;;;;;3.17;1.40;;;20.20;99.90;;;;;;5028742;28;21067;-78
2021/06/29 06:42:30;;;;;;;1.38;1.27;;;20.10;99.90;;;;;;5029200;28;20190;-80
2021/06/29 06:44:57;;;;;;;3.10;1.55;;;20.10;99.90;;;;;;5027823;28;20178;-79
2021/06/29 06:47:23;;;;;;;2.90;1.38;;;20.20;99.90;;;;;;5027099;28;20202;-80
2021/06/29 06:50:12;;;;;;;1.50;1.33;;;20.30;99.90;;;;;;4953615;28;20321;-79
2021/06/29 06:52:38;;;;;;;1.98;1.35;;;20.30;99.90;;;;;;5026915;28;20274;-81
2021/06/29 06:55:05;;;;;;;1.63;1.13;;;20.40;99.90;;;;;;5027310;28;20186;-81
2021/06/29 06:57:30;;;;;;;1.70;1.10;;;20.50;99.90;;;;;;5027739;28;20210;-81
2021/06/29 06:59:56;;;;;;;1.25;1.15;;;20.50;99.90;;;;;;5027221;28;20578;-79
2021/06/29 07:02:22;;;;;;;2.10;1.60;;;20.60;99.90;;;;;;5026912;28;21151;-79
2021/06/29 07:04:47;;;;;;;2.55;1.70;;;20.70;99.90;;;;;;5028383;28;20233;-79
2021/06/29 07:07:13;;;;;;;1.40;1.30;;;20.70;99.90;;;;;;5026669;28;20209;-81
2021/06/29 07:09:39;;;;;;;1.42;1.33;;;20.80;99.90;;;;;;5027632;28;20676;-80
2021/06/29 07:12:05;;;;;;;1.40;1.17;;;20.90;99.90;;;;;;5028496;28;20186;-79
2021/06/29 07:14:31;;;;;;;1.75;1.63;;;21.00;99.90;;;;;;5027592;28;20269;-80
2021/06/29 07:16:56;;;;;;;2.05;1.80;;;21.00;99.90;;;;;;5031703;28;20237;-82
2021/06/29 07:19:22;;;;;;;1.52;1.42;;;21.00;99.90;;;;;;5028517;28;20197;-79
2021/06/29 07:21:47;;;;;;;1.63;1.38;;;21.00;99.90;;;;;;5027687;28;20427;-81
2021/06/29 07:24:13;;;;;;;1.55;1.45;;;21.10;99.90;;;;;;5031979;28;20244;-80
2021/06/29 07:26:39;;;;;;;1.65;1.55;;;21.20;99.90;;;;;;5029836;28;20665;-80
2021/06/29 07:29:04;;;;;;;1.40;1.30;;;21.30;99.90;;;;;;5030304;28;20236;-77
2021/06/29 07:31:31;;;;;;;1.70;1.17;;;21.20;99.90;;;;;;5024314;28;20190;-77
2021/06/29 07:33:57;;;;;;;1.95;1.45;;;21.10;99.90;;;;;;5023526;28;20669;-80
2021/06/29 07:36:22;;;;;;;1.58;1.48;;;21.20;99.90;;;;;;5023975;28;20281;-78
2021/06/29 07:38:48;;;;;;;1.65;1.40;;;21.40;99.90;;;;;;5024423;28;20535;-78
2021/06/29 07:41:15;;;;;;;1.90;1.80;;;21.50;99.90;;;;;;5023780;28;21578;-78
2021/06/29 07:43:41;;;;;;;3.10;1.52;;;21.50;99.90;;;;;;5025965;28;20221;-77
2021/06/29 07:46:07;;;;;;;1.30;1.20;;;21.50;99.90;;;;;;5024035;28;20621;-80
2021/06/29 07:48:33;;;;;;;1.88;1.48;;;21.60;99.90;;;;;;5026731;28;20656;-78
2021/06/29 07:50:59;;;;;;;1.70;1.40;;;21.70;99.90;;;;;;5025899;28;20477;-78
2021/06/29 07:53:24;;;;;;;1.38;1.27;;;21.80;99.90;;;;;;5023834;28;20553;-76
2021/06/29 07:58:17;;;;;;;1.60;1.50;;;21.90;99.90;;;;;;5467559;22;20321;-78
2021/06/29 08:00:42;;;;;;;1.38;1.25;;;21.90;99.90;;;;;;5006696;28;20230;-77
2021/06/29 08:03:08;;;;;;;1.95;1.60;;;21.90;99.90;;;;;;5008521;28;20180;-76
2021/06/29 08:05:34;;;;;;;1.45;1.35;;;21.90;99.90;;;;;;5014306;28;20186;-76
2021/06/29 08:08:00;;;;;;;1.45;1.35;;;21.80;99.90;;;;;;5006638;28;20216;-74
2021/06/29 08:10:25;;;;;;;1.48;1.20;;;21.70;99.90;;;;;;5007223;28;20190;-79
2021/06/29 08:12:51;;;;;;;1.52;1.40;;;21.60;99.90;;;;;;5003980;28;20405;-77
2021/06/29 08:15:17;;;;;;;2.25;1.60;;;21.50;99.90;;;;;;5004540;28;20200;-75
2021/06/29 08:17:45;;;;;;;1.70;1.40;;;21.40;99.90;;;;;;5014967;28;20229;-75
2021/06/29 08:20:15;;;;;;;1.60;1.50;;;21.30;99.90;;;;;;5013150;28;20213;-76
2021/06/29 08:22:42;;;;;;;2.03;1.60;;;21.30;99.90;;;;;;5011648;28;20180;-75
2021/06/29 08:25:08;;;;;;;1.50;1.30;;;21.30;99.90;;;;;;5015402;28;20194;-77
2021/06/29 08:27:34;;;;;;;1.98;1.65;;;21.30;99.90;;;;;;5012006;28;20227;-78
2021/06/29 08:30:00;;;;;;;1.98;1.30;;;21.40;99.90;;;;;;5009768;28;20207;-77
2021/06/29 08:32:26;;;;;;;1.85;1.35;;;21.40;99.90;;;;;;5003134;28;20334;-76
2021/06/29 08:34:53;;;;;;;1.70;1.50;;;21.50;99.90;;;;;;5009454;28;20571;-77
2021/06/29 08:37:20;;;;;;;2.63;1.35;;;21.60;99.90;;;;;;5010803;28;20213;-76
2021/06/29 08:39:46;;;;;;;1.65;1.55;;;21.50;99.90;;;;;;5010232;28;20238;-75
2021/06/29 08:42:13;;;;;;;1.80;1.67;;;21.50;99.90;;;;;;5007145;28;20227;-77
2021/06/29 08:44:39;;;;;;;2.58;1.38;;;21.60;99.90;;;;;;5020869;28;20187;-79
2021/06/29 08:47:08;;;;;;;1.63;1.45;;;21.60;99.90;;;;;;5005792;28;20314;-80
2021/06/29 08:49:33;;;;;;;1.55;1.45;;;21.60;99.90;;;;;;5006289;28;20453;-75
2021/06/29 08:51:59;;;;;;;1.92;1.55;;;21.70;99.90;;;;;;5005498;28;20281;-79
2021/06/29 08:54:25;;;;;;;1.95;1.55;;;21.80;99.90;;;;;;5006498;28;20190;-77
2021/06/29 08:56:51;;;;;;;1.80;1.67;;;21.80;99.90;;;;;;5013541;28;20202;-76
2021/06/29 08:59:17;;;;;;;1.52;1.42;;;21.70;99.90;;;;;;5008233;28;20800;-77
2021/06/29 09:01:43;;;;;;;1.50;1.40;;;21.70;99.90;;;;;;5007126;28;20222;-76
2021/06/29 09:04:08;;;;;;;1.75;1.65;;;21.70;99.90;;;;;;5006595;28;20497;-79
2021/06/29 09:06:40;;;;;;;2.00;1.63;;;21.70;99.90;;;;;;5020014;28;20207;-74
2021/06/29 09:09:28;;;;;;;3.28;1.55;;;21.80;99.90;;;;;;5013213;28;20918;-76
2021/06/29 09:11:55;;;;;;;2.13;1.90;;;21.80;99.90;;;;;;5007653;28;20453;-78
2021/06/29 09:14:28;;;;;;;3.10;1.50;;;21.80;99.90;;;;;;5006951;28;20203;-77
2021/06/29 09:17:13;;;;;;;1.65;1.50;;;21.70;99.90;;;;;;5015792;28;20577;-78
2021/06/29 09:19:39;;;;;;;1.35;1.25;;;21.70;99.90;;;;;;5009207;28;20278;-79
2021/06/29 09:22:33;;;;;;;1.33;1.23;;;21.70;99.90;;;;;;5010704;28;20267;-79
2021/06/29 09:24:59;;;;;;;1.35;1.25;;;21.90;99.90;;;;;;5013019;28;20183;-77
2021/06/29 09:27:44;;;;;;;1.20;1.10;;;22.10;99.90;;;;;;5005851;28;20580;-78
2021/06/29 09:30:40;;;;;;;1.02;0.98;;;22.10;99.90;;;;;;5006653;28;20187;-76
2021/06/29 09:33:12;;;;;;;1.23;1.13;;;22.20;99.90;;;;;;5014921;28;20731;-78
2021/06/29 09:35:40;;;;;;;1.40;1.30;;;22.30;99.90;;;;;;5006572;28;20179;-76
2021/06/29 09:38:07;;;;;;;2.63;1.63;;;22.40;99.90;;;;;;5009423;28;20215;-79
2021/06/29 09:40:35;;;;;;;1.50;1.25;;;22.50;99.90;;;;;;5020370;28;20857;-77
2021/06/29 09:43:15;;;;;;;1.50;1.40;;;22.60;99.90;;;;;;5006301;28;20497;-78
2021/06/29 09:45:46;;;;;;;1.30;1.20;;;22.70;99.90;;;;;;5015863;28;20210;-75
2021/06/29 09:48:15;;;;;;;1.20;1.10;;;22.90;99.90;;;;;;5005174;28;20230;-79
2021/06/29 09:50:49;;;;;;;1.25;1.15;;;22.90;99.90;;;;;;5005820;28;20638;-77
2021/06/29 09:53:25;;;;;;;1.10;1.00;;;22.90;99.90;;;;;;5009053;28;20699;-78
2021/06/29 09:55:57;;;;;;;1.65;1.17;;;22.90;99.90;;;;;;5008239;28;20676;-78
2021/06/29 09:58:24;;;;;;;0.90;0.90;;;23.00;99.90;;;;;;5008800;28;20199;-78
2021/06/29 10:00:53;;;;;;;1.08;1.02;;;23.00;99.90;;;;;;5008302;28;20211;-81
2021/06/29 10:03:39;;;;;;;1.30;1.20;;;22.90;99.90;;;;;;5010790;28;20258;-78
2021/06/29 10:06:16;;;;;;;1.92;1.20;;;23.00;99.90;;;;;;5006775;28;20194;-78
2021/06/29 10:08:53;;;;;;;1.17;1.15;;;23.10;99.90;;;;;;5012632;28;20192;-78
2021/06/29 10:11:20;;;;;;;1.50;1.30;;;23.10;99.90;;;;;;5012305;28;20191;-80
2021/06/29 10:14:03;;;;;;;5.63;1.67;;;23.10;99.90;;;;;;5013429;28;20188;-80
2021/06/29 10:16:57;;;;;;;1.45;1.35;;;23.20;99.90;;;;;;5015426;28;20187;-80
2021/06/29 10:19:34;;;;;;;1.10;1.10;;;23.20;99.90;;;;;;5011270;28;20365;-80
2021/06/29 10:22:03;;;;;;;0.88;0.80;;;23.20;99.90;;;;;;5020534;28;20652;-80
2021/06/29 10:24:34;;;;;;;1.45;1.30;;;23.30;99.90;;;;;;5014927;28;20682;-80
2021/06/29 10:27:05;;;;;;;1.67;1.23;;;23.40;99.90;;;;;;5034025;28;20199;-79
2021/06/29 10:29:31;;;;;;;1.27;1.17;;;23.40;99.90;;;;;;5015935;28;20175;-78
2021/06/29 10:32:06;;;;;;;0.95;0.93;;;23.40;99.90;;;;;;5020208;28;20245;-80
2021/06/29 10:34:33;;;;;;;1.13;1.13;;;23.40;99.90;;;;;;5011839;28;20186;-80
2021/06/29 10:36:58;;;;;;;2.75;1.10;;;23.50;99.90;;;;;;5019278;28;20203;-80
2021/06/29 10:39:28;;;;;;;1.50;1.40;;;23.60;99.90;;;;;;5034766;28;20187;-78
2021/06/29 10:42:00;;;;;;;1.73;1.45;;;23.60;99.90;;;;;;5016599;28;20588;-77
2021/06/29 10:44:27;;;;;;;1.40;1.30;;;23.50;99.90;;;;;;5019062;28;20187;-79
2021/06/29 10:46:55;;;;;;;1.40;1.30;;;23.30;99.90;;;;;;5021453;28;20199;-77
2021/06/29 10:49:39;;;;;;;1.30;1.20;;;23.30;99.90;;;;;;5024025;28;20187;-77
2021/06/29 10:52:23;;;;;;;1.30;1.20;;;23.40;99.90;;;;;;5017638;28;20668;-78
2021/06/29 10:54:56;;;;;;;2.00;1.25;;;23.50;99.90;;;;;;5017388;28;20191;-78
2021/06/29 10:57:36;;;;;;;1.75;1.60;;;23.50;99.90;;;;;;5018372;28;20767;-77
2021/06/29 11:00:17;;;;;;;1.50;1.40;;;23.80;99.90;;;;;;5018920;28;20836;-78
2021/06/29 11:02:58;;;;;;;4.10;1.67;;;24.20;99.90;;;;;;5017416;28;20275;-78
2021/06/29 11:05:27;;;;;;;2.70;1.45;;;24.40;99.90;;;;;;5017555;28;20190;-79
2021/06/29 11:08:14;;;;;;;2.28;1.30;;;24.50;99.90;;;;;;5020923;28;20207;-78
2021/06/29 11:10:47;;;;;;;1.40;1.30;;;24.50;99.90;;;;;;5014726;28;20182;-77
2021/06/29 11:13:13;;;;;;;2.00;1.80;;;24.60;99.90;;;;;;5019566;28;20191;-77
2021/06/29 11:15:53;;;;;;;2.92;1.27;;;24.40;99.90;;;;;;5020428;28;20388;-80
2021/06/29 11:18:38;;;;;;;1.60;1.50;;;24.60;99.90;;;;;;5011457;28;20677;-80
2021/06/29 11:21:06;;;;;;;2.08;1.50;;;24.90;99.90;;;;;;5026930;28;20315;-77
2021/06/29 11:23:33;;;;;;;1.60;1.50;;;25.20;99.90;;;;;;5016815;28;20176;-80
2021/06/29 11:26:01;;;;;;;2.22;1.98;;;25.20;99.90;;;;;;5022281;28;20507;-77
2021/06/29 11:28:36;;;;;;;1.10;1.00;;;25.60;99.90;;;;;;5018027;28;20266;-79
2021/06/29 11:31:20;;;;;;;1.67;1.33;;;25.50;99.90;;;;;;5014891;28;20367;-80
2021/06/29 11:33:55;;;;;;;1.63;1.23;;;25.80;99.90;;;;;;5019075;28;20192;-79
2021/06/29 11:36:24;;;;;;;2.08;1.55;;;25.90;99.90;;;;;;5031708;28;20711;-80
2021/06/29 11:38:57;;;;;;;2.08;1.58;;;25.90;99.90;;;;;;5023232;28;20189;-78
2021/06/29 11:41:37;;;;;;;3.40;1.58;;;25.40;99.90;;;;;;5014572;28;20214;-79
2021/06/29 11:44:06;;;;;;;1.42;1.33;;;25.80;99.90;;;;;;5037963;28;20278;-80
2021/06/29 11:46:54;;;;;;;1.58;1.48;;;26.00;99.90;;;;;;5013985;28;20246;-78
2021/06/29 11:49:29;;;;;;;2.80;1.88;;;26.00;99.90;;;;;;5012050;28;20194;-80
2021/06/29 11:51:59;;;;;;;1.50;1.40;;;25.90;99.90;;;;;;5022863;28;20183;-79
2021/06/29 11:54:38;;;;;;;1.83;1.50;;;26.00;99.90;;;;;;5014760;28;20191;-79
2021/06/29 11:57:14;;;;;;;1.52;1.42;;;26.00;99.90;;;;;;5010155;28;20280;-79
2021/06/29 11:59:40;;;;;;;1.50;1.40;;;26.20;99.90;;;;;;5017557;28;20183;-79
2021/06/29 12:02:10;;;;;;;1.58;1.48;;;26.50;99.90;;;;;;5019766;28;20270;-79
2021/06/29 12:04:36;;;;;;;1.50;1.40;;;26.50;99.90;;;;;;5012306;28;20551;-79
2021/06/29 12:07:06;;;;;;;2.50;1.60;;;26.10;99.90;;;;;;5015648;28;20207;-77
2021/06/29 12:09:34;;;;;;;1.85;1.38;;;26.20;99.90;;;;;;5019338;28;20433;-79
2021/06/29 12:12:20;;;;;;;1.80;1.70;;;26.20;99.90;;;;;;5020494;28;20267;-79
2021/06/29 12:14:46;;;;;;;1.40;1.30;;;26.30;99.90;;;;;;5012156;28;20176;-79
2021/06/29 12:17:12;;;;;;;2.08;1.50;;;26.40;99.90;;;;;;5015918;28;20218;-78
2021/06/29 12:19:42;;;;;;;1.20;1.10;;;26.30;99.90;;;;;;5020335;28;20656;-79
2021/06/29 12:22:08;;;;;;;2.83;1.48;;;25.50;99.90;;;;;;5017406;28;20183;-79
2021/06/29 12:24:35;;;;;;;2.97;1.67;;;25.30;99.90;;;;;;5034737;28;20233;-79
2021/06/29 12:27:01;;;;;;;1.60;1.50;;;25.40;99.90;;;;;;5019117;28;20202;-79
2021/06/29 12:29:35;;;;;;;1.63;1.52;;;25.50;99.90;;;;;;5012235;28;20194;-79
2021/06/29 12:32:18;;;;;;;1.42;1.33;;;25.40;99.90;;;;;;5009208;28;20190;-79
2021/06/29 12:34:44;;;;;;;1.48;1.38;;;25.30;99.90;;;;;;5011003;28;20179;-79
2021/06/29 12:37:09;;;;;;;1.83;1.73;;;25.30;99.90;;;;;;5010830;28;20246;-79
2021/06/29 12:39:35;;;;;;;2.50;1.73;;;25.30;99.90;;;;;;5008965;28;20215;-77
2021/06/29 12:42:11;;;;;;;2.28;1.77;;;25.20;99.90;;;;;;5033960;28;20183;-79
2021/06/29 12:44:37;;;;;;;1.80;1.70;;;24.90;99.90;;;;;;5012414;28;20205;-78
2021/06/29 12:47:04;;;;;;;1.67;1.58;;;24.80;99.90;;;;;;5008006;28;20661;-80
2021/06/29 12:49:33;;;;;;;2.38;1.58;;;24.90;99.90;;;;;;5005222;28;20278;-79
2021/06/29 12:52:04;;;;;;;1.85;1.67;;;25.00;99.90;;;;;;5006865;28;20187;-78
2021/06/29 12:54:31;;;;;;;1.90;1.60;;;25.00;99.90;;;;;;5014484;28;20175;-79
2021/06/29 12:57:00;;;;;;;1.90;1.75;;;25.30;99.90;;;;;;5014803;28;20281;-80
2021/06/29 12:59:28;;;;;;;2.13;1.60;;;25.50;99.90;;;;;;5003757;28;20553;-78
2021/06/29 13:01:58;;;;;;;2.08;1.77;;;25.40;99.90;;;;;;5006268;28;20265;-81
2021/06/29 13:04:25;;;;;;;1.63;1.50;;;25.40;99.90;;;;;;5010235;28;20175;-79